Aviation Digital Data Service (ADDS)

Output produced by METARs form (0251 UTC 06 July 2015)
found at http://www.aviationweather.gov/adds/metars/
 
KALB 052332Z 0600/0624 28005KT P6SM FEW060 SCT250 
     FM060600 00000KT P6SM MIFG SKC 
     FM060800 00000KT 3SM BR SCT008 
     FM061100 00000KT P6SM MIFG FEW008 
     FM061200 VRB03KT P6SM FEW050 
     FM061800 18007KT P6SM FEW050 SCT200